createdAt,value
2023-04-11T00:02:11.920Z,98623.63
2023-04-11T00:04:58.898Z,98608.19
2023-04-11T00:07:45.405Z,98608.38
2023-04-11T00:10:32.033Z,98604.13
2023-04-11T00:13:19.704Z,98605.94
2023-04-11T00:16:08.768Z,98604.19
2023-04-11T00:18:57.182Z,98590.47
2023-04-11T00:21:44.193Z,98564.66
2023-04-11T00:24:30.846Z,98590.19
2023-04-11T00:27:17.755Z,98579.03
2023-04-11T00:30:08.350Z,98568.97
2023-04-11T00:32:54.879Z,98570.16
2023-04-11T00:35:41.485Z,98587.34
2023-04-11T00:38:27.612Z,98586.34
2023-04-11T00:41:14.012Z,98581.94
2023-04-11T00:44:00.691Z,98516.19
2023-04-11T00:46:47.327Z,98573.63
2023-04-11T00:49:33.758Z,98587.72
2023-04-11T00:52:20.152Z,98583.28
2023-04-11T00:55:07.420Z,98577.94
2023-04-11T00:57:55.057Z,98591.72
2023-04-11T01:00:41.448Z,98573.88
2023-04-11T01:03:29.259Z,98602.97
2023-04-11T01:06:18.770Z,98599.88
2023-04-11T01:09:05.453Z,98587.31
2023-04-11T01:11:51.909Z,98593.72
2023-04-11T01:14:39.697Z,98583.03
2023-04-11T01:17:27.117Z,98568.63
2023-04-11T01:20:14.127Z,98569.59
2023-04-11T01:23:03.059Z,98586.06
2023-04-11T01:25:50.279Z,98615.53
2023-04-11T01:28:36.815Z,98616.56
2023-04-11T01:31:24.315Z,98620.25
2023-04-11T01:34:14.002Z,98638.41
2023-04-11T01:37:00.694Z,98647.13
2023-04-11T01:39:48.704Z,98641.28
2023-04-11T01:42:36.906Z,98644.03
2023-04-11T01:45:23.816Z,98639.78
2023-04-11T01:48:10.242Z,98635.53
2023-04-11T01:50:58.305Z,98651.13
2023-04-11T01:53:47.293Z,98634.78
2023-04-11T01:56:33.489Z,98657.13
2023-04-11T01:59:20.774Z,98654.59
2023-04-11T02:02:06.993Z,98633.16
2023-04-11T02:04:53.333Z,98603.19
2023-04-11T02:07:40.146Z,98645.25
2023-04-11T02:10:26.376Z,98627.19
2023-04-11T02:13:12.808Z,98643.56
2023-04-11T02:16:08.225Z,98658.25
2023-04-11T02:18:55.136Z,98677.16
2023-04-11T02:21:41.693Z,98696.94
2023-04-11T02:24:28.622Z,98675.47
2023-04-11T02:27:15.193Z,98695.25
2023-04-11T02:30:05.701Z,98685.75
2023-04-11T02:32:52.532Z,98669.44
2023-04-11T02:35:38.906Z,98666.84
2023-04-11T02:38:25.769Z,98691.78
2023-04-11T02:41:12.292Z,98695.28
2023-04-11T02:43:58.678Z,98683.19
2023-04-11T02:46:45.304Z,98656.56
2023-04-11T02:49:32.211Z,98683.25
2023-04-11T02:52:20.229Z,98672.13
2023-04-11T02:55:07.083Z,98600.81
2023-04-11T02:57:53.463Z,98658.41
2023-04-11T03:00:41.725Z,98690.22
2023-04-11T03:03:28.855Z,98658.41
2023-04-11T03:06:16.236Z,98675.66
2023-04-11T03:09:04.054Z,98679.94
2023-04-11T03:11:52.201Z,98702.28
2023-04-11T03:14:38.645Z,98683.38
2023-04-11T03:17:25.436Z,98691.13
2023-04-11T03:20:13.583Z,98721.25
2023-04-11T03:23:04.963Z,98716.91
2023-04-11T03:25:51.819Z,98701.47
2023-04-11T03:28:39.230Z,98609.41
2023-04-11T03:31:26.044Z,98646.38
2023-04-11T03:34:13.640Z,98711.78
2023-04-11T03:37:01.227Z,98676.47
2023-04-11T03:39:47.695Z,98672.19
2023-04-11T03:42:36.235Z,98705.72
2023-04-11T03:45:25.449Z,98697.09
2023-04-11T03:48:14.168Z,98696.25
2023-04-11T03:51:11.533Z,98692.78
2023-04-11T03:54:10.898Z,98714.31
2023-04-11T03:57:01.026Z,98679.03
2023-04-11T03:59:50.603Z,98699.69
2023-04-11T04:02:37.095Z,98713.50
2023-04-11T04:05:26.618Z,98701.44
2023-04-11T04:08:13.664Z,98669.59
2023-04-11T04:11:05.811Z,98687.63
2023-04-11T04:13:55.696Z,98673.03
2023-04-11T04:16:42.415Z,98692.81
2023-04-11T04:19:30.353Z,98704.88
2023-04-11T04:22:17.832Z,98710.06
2023-04-11T04:25:12.761Z,98685.06
2023-04-11T04:28:00.962Z,98692.78
2023-04-11T04:30:54.384Z,98728.09
2023-04-11T04:33:43.141Z,98710.00
2023-04-11T04:36:49.185Z,98684.19
2023-04-11T04:39:42.037Z,98753.06
2023-04-11T04:42:30.911Z,98738.38
2023-04-11T04:45:22.770Z,98728.06
2023-04-11T04:48:09.468Z,98764.19
2023-04-11T04:50:56.176Z,98743.50
2023-04-11T04:53:42.702Z,98720.25
2023-04-11T04:56:31.218Z,98789.97
2023-04-11T04:59:18.774Z,98778.69
2023-04-11T05:02:11.570Z,98767.44
2023-04-11T05:05:04.018Z,98792.41
2023-04-11T05:07:51.126Z,98796.69
2023-04-11T05:10:37.784Z,98807.81
2023-04-11T05:13:27.907Z,98806.06
2023-04-11T05:16:14.560Z,98816.38
2023-04-11T05:19:01.209Z,98798.25
2023-04-11T05:21:49.586Z,98811.25
2023-04-11T05:24:36.414Z,98788.00
2023-04-11T05:27:27.277Z,98807.81
2023-04-11T05:30:14.625Z,98792.28
2023-04-11T05:33:06.492Z,98800.06
2023-04-11T05:35:53.269Z,98808.66
2023-04-11T05:38:46.567Z,98819.00
2023-04-11T05:41:33.366Z,98821.59
2023-04-11T05:44:23.537Z,98831.94
2023-04-11T05:47:11.575Z,98807.81
2023-04-11T05:49:58.166Z,98826.81
2023-04-11T05:52:45.187Z,98824.22
2023-04-11T05:55:31.481Z,98765.66
2023-04-11T05:58:18.155Z,98824.25
2023-04-11T06:01:07.256Z,98786.31
2023-04-11T06:03:53.853Z,98823.34
2023-04-11T06:06:40.391Z,98829.44
2023-04-11T06:09:26.770Z,98840.63
2023-04-11T06:12:13.004Z,98819.06
2023-04-11T06:14:59.856Z,98823.44
2023-04-11T06:17:45.936Z,98801.91
2023-04-11T06:20:32.576Z,98847.56
2023-04-11T06:23:19.031Z,98821.72
2023-04-11T06:26:05.394Z,98822.59
2023-04-11T06:28:51.961Z,98830.38
2023-04-11T06:31:38.325Z,98844.13
2023-04-11T06:34:24.936Z,98857.97
2023-04-11T06:37:11.198Z,98835.53
2023-04-11T06:39:59.785Z,98866.56
2023-04-11T06:42:47.318Z,98820.03
2023-04-11T06:45:34.647Z,98845.88
2023-04-11T06:48:21.294Z,98879.50
2023-04-11T06:51:09.037Z,98883.81
2023-04-11T06:53:55.837Z,98893.31
2023-04-11T06:56:43.221Z,98885.56
2023-04-11T06:59:29.709Z,98881.25
2023-04-11T07:02:16.737Z,98900.22
2023-04-11T07:05:03.486Z,98880.38
2023-04-11T07:07:50.150Z,98872.69
2023-04-11T07:10:36.447Z,98900.22
2023-04-11T07:13:22.795Z,98929.47
2023-04-11T07:16:09.754Z,98932.97
2023-04-11T07:18:56.740Z,98918.31
2023-04-11T07:21:43.518Z,98914.88
2023-04-11T07:24:30.518Z,98906.25
2023-04-11T07:27:17.616Z,98935.53
2023-04-11T07:30:04.975Z,98930.38
2023-04-11T07:32:51.648Z,98925.22
2023-04-11T07:35:38.014Z,98944.16
2023-04-11T07:38:31.025Z,98908.00
2023-04-11T07:41:17.473Z,98914.03
2023-04-11T07:44:07.166Z,98937.28
2023-04-11T07:46:53.655Z,98916.59
2023-04-11T07:49:39.894Z,98939.00
2023-04-11T07:52:26.341Z,98942.41
2023-04-11T07:55:12.818Z,98937.16
2023-04-11T07:57:58.924Z,98941.44
2023-04-11T08:00:46.040Z,98924.22
2023-04-11T08:03:32.628Z,98935.47
2023-04-11T08:06:19.419Z,98944.06
2023-04-11T08:09:05.675Z,98948.38
2023-04-11T08:11:51.982Z,98952.63
2023-04-11T08:14:38.287Z,98944.88
2023-04-11T08:17:29.328Z,98940.53
2023-04-11T08:20:16.773Z,98949.94
2023-04-11T08:23:07.131Z,98967.25
2023-04-11T08:25:53.260Z,98976.69
2023-04-11T08:28:42.344Z,98949.06
2023-04-11T08:31:29.359Z,98952.47
2023-04-11T08:34:15.565Z,98950.84
2023-04-11T08:37:01.788Z,98972.25
2023-04-11T08:39:48.047Z,98960.19
2023-04-11T08:42:34.946Z,98953.38
2023-04-11T08:45:21.380Z,98950.63
2023-04-11T08:48:09.243Z,98966.84
2023-04-11T08:50:56.933Z,98976.50
2023-04-11T08:53:43.569Z,98954.13
2023-04-11T08:56:29.774Z,98955.97
2023-04-11T08:59:17.484Z,98969.00
2023-04-11T09:02:11.169Z,98988.03
2023-04-11T09:04:57.853Z,98975.03
2023-04-11T09:07:50.645Z,98994.03
2023-04-11T09:10:39.041Z,99002.59
2023-04-11T09:13:27.418Z,99004.22
2023-04-11T09:16:14.630Z,99000.81
2023-04-11T09:19:01.243Z,98969.78
2023-04-11T09:21:50.737Z,98991.19
2023-04-11T09:24:37.592Z,98978.25
2023-04-11T09:27:26.140Z,98986.88
2023-04-11T09:30:23.832Z,99004.25
2023-04-11T09:33:28.834Z,99002.50
2023-04-11T09:36:20.632Z,99006.63
2023-04-11T09:39:20.346Z,98989.13
2023-04-11T09:42:25.557Z,98993.47
2023-04-11T09:45:25.637Z,98956.34
2023-04-11T09:48:12.791Z,98967.34
2023-04-11T09:51:00.828Z,98960.25
2023-04-11T09:53:47.345Z,98999.00
2023-04-11T09:56:37.178Z,98937.97
2023-04-11T09:59:26.478Z,98961.28
2023-04-11T10:02:13.204Z,98986.22
2023-04-11T10:05:04.285Z,98951.91
2023-04-11T10:07:56.802Z,98982.09
2023-04-11T10:10:44.283Z,98945.88
2023-04-11T10:13:39.685Z,98980.25
2023-04-11T10:16:28.329Z,98986.38
2023-04-11T10:19:18.548Z,98976.91
2023-04-11T10:22:04.878Z,98970.75
2023-04-11T10:25:20.351Z,98985.47
2023-04-11T10:28:07.105Z,98980.25
2023-04-11T10:31:01.665Z,98984.69
2023-04-11T10:34:14.342Z,98989.91
2023-04-11T10:37:06.178Z,98939.06
2023-04-11T10:39:57.830Z,98982.94
2023-04-11T10:42:46.521Z,98994.97
2023-04-11T10:45:39.515Z,98976.63
2023-04-11T10:48:26.187Z,98968.69
2023-04-11T10:51:24.859Z,98973.66
2023-04-11T10:54:28.171Z,98979.16
2023-04-11T10:57:14.791Z,98976.59
2023-04-11T11:00:12.156Z,98962.97
2023-04-11T11:02:59.206Z,98974.16
2023-04-11T11:05:46.023Z,98976.94
2023-04-11T11:08:41.730Z,98985.56
2023-04-11T11:11:28.203Z,98964.22
2023-04-11T11:14:30.196Z,98957.38
2023-04-11T11:17:17.344Z,98987.34
2023-04-11T11:20:10.058Z,98981.06
2023-04-11T11:23:05.144Z,98964.59
2023-04-11T11:25:55.758Z,98990.88
2023-04-11T11:28:49.220Z,98968.19
2023-04-11T11:31:39.103Z,98976.16
2023-04-11T11:34:31.407Z,98993.50
2023-04-11T11:37:17.634Z,98976.44
2023-04-11T11:40:12.570Z,98970.47
2023-04-11T11:42:59.048Z,98925.69
2023-04-11T11:45:45.678Z,98954.06
2023-04-11T11:48:32.119Z,98958.88
2023-04-11T11:51:18.246Z,98960.91
2023-04-11T11:54:09.460Z,98969.13
2023-04-11T11:56:55.952Z,98976.16
2023-04-11T11:59:42.667Z,98989.91
2023-04-11T12:02:29.510Z,98967.97
2023-04-11T12:05:17.225Z,98958.97
2023-04-11T12:08:06.045Z,98981.16
2023-04-11T12:10:52.561Z,98924.03
2023-04-11T12:13:38.798Z,98962.78
2023-04-11T12:16:25.520Z,98984.13
2023-04-11T12:19:13.382Z,98996.16
2023-04-11T12:22:01.640Z,98982.50
2023-04-11T12:24:52.649Z,98972.22
2023-04-11T12:27:42.090Z,98966.13
2023-04-11T12:30:30.084Z,98969.69
2023-04-11T12:33:16.598Z,98969.81
2023-04-11T12:36:03.578Z,98946.81
2023-04-11T12:38:50.473Z,98985.28
2023-04-11T12:41:36.647Z,98983.84
2023-04-11T12:44:23.146Z,98946.75
2023-04-11T12:47:09.465Z,98991.78
2023-04-11T12:49:55.944Z,98972.41
2023-04-11T12:52:42.381Z,98991.31
2023-04-11T12:55:28.758Z,98954.91
2023-04-11T12:58:15.768Z,99003.59
2023-04-11T13:01:02.035Z,98974.41
2023-04-11T13:03:48.779Z,98994.97
2023-04-11T13:06:36.527Z,98973.72
2023-04-11T13:09:22.974Z,98947.13
2023-04-11T13:12:09.169Z,98963.53
2023-04-11T13:14:56.824Z,98948.91
2023-04-11T13:17:43.383Z,98974.34
2023-04-11T13:20:30.037Z,98985.22
2023-04-11T13:23:17.349Z,98932.03
2023-04-11T13:26:03.915Z,98988.88
2023-04-11T13:28:51.160Z,98944.13
2023-04-11T13:31:37.357Z,98970.69
2023-04-11T13:34:23.791Z,98967.97
2023-04-11T13:37:10.389Z,98971.53
2023-04-11T13:39:56.773Z,98956.03
2023-04-11T13:42:43.106Z,98965.47
2023-04-11T13:45:29.713Z,98955.25
2023-04-11T13:48:16.205Z,98943.94
2023-04-11T13:51:04.432Z,98948.72
2023-04-11T13:53:51.168Z,98936.97
2023-04-11T13:56:38.072Z,98957.75
2023-04-11T13:59:24.735Z,98968.91
2023-04-11T14:02:11.063Z,98955.19
2023-04-11T14:04:58.131Z,98930.41
2023-04-11T14:07:44.366Z,98961.41
2023-04-11T14:10:30.880Z,98935.03
2023-04-11T14:13:17.076Z,98957.56
2023-04-11T14:16:08.752Z,98954.91
2023-04-11T14:18:56.295Z,98954.03
2023-04-11T14:21:42.941Z,98929.16
2023-04-11T14:24:29.172Z,98938.53
2023-04-11T14:27:15.502Z,98954.47
2023-04-11T14:30:02.139Z,98910.56
2023-04-11T14:32:48.297Z,98954.47
2023-04-11T14:35:34.546Z,98959.72
2023-04-11T14:38:21.125Z,98946.91
2023-04-11T14:41:07.476Z,98941.16
2023-04-11T14:43:53.802Z,98897.72
2023-04-11T14:46:40.304Z,98944.22
2023-04-11T14:49:26.431Z,98911.53
2023-04-11T14:52:12.780Z,98931.88
2023-04-11T14:54:59.282Z,98953.13
2023-04-11T14:57:48.179Z,98945.28
2023-04-11T15:00:35.311Z,98920.59
2023-04-11T15:03:22.120Z,98938.78
2023-04-11T15:06:11.031Z,98918.53
2023-04-11T15:08:57.460Z,98944.41
2023-04-11T15:11:44.039Z,98937.25
2023-04-11T15:14:30.313Z,98936.84
2023-04-11T15:17:16.549Z,98932.16
2023-04-11T15:20:05.162Z,98936.09
2023-04-11T15:22:51.455Z,98933.75
2023-04-11T15:25:37.750Z,98945.31
2023-04-11T15:28:25.441Z,98886.22
2023-04-11T15:31:12.949Z,98927.41
2023-04-11T15:34:03.602Z,98906.84
2023-04-11T15:36:50.040Z,98925.53
2023-04-11T15:39:36.566Z,98912.66
2023-04-11T15:42:22.672Z,98930.88
2023-04-11T15:45:09.816Z,98910.56
2023-04-11T15:47:56.395Z,98929.72
2023-04-11T15:50:43.945Z,98937.84
2023-04-11T15:53:30.346Z,98919.09
2023-04-11T15:56:18.872Z,98919.97
2023-04-11T15:59:18.587Z,98913.88
2023-04-11T16:02:05.585Z,98926.81
2023-04-11T16:04:54.139Z,98915.47
2023-04-11T16:07:42.386Z,98908.44
2023-04-11T16:10:30.086Z,98920.53
2023-04-11T16:13:16.672Z,98908.44
2023-04-11T16:16:03.510Z,98924.13
2023-04-11T16:18:49.839Z,98913.72
2023-04-11T16:21:36.104Z,98878.50
2023-04-11T16:24:22.406Z,98901.63
2023-04-11T16:27:08.791Z,98912.94
2023-04-11T16:29:59.782Z,98902.63
2023-04-11T16:32:46.205Z,98904.31
2023-04-11T16:35:32.911Z,98901.63
2023-04-11T16:38:19.114Z,98853.56
2023-04-11T16:41:05.931Z,98898.25
2023-04-11T16:43:52.253Z,98898.38
2023-04-11T16:46:39.828Z,98879.53
2023-04-11T16:49:26.179Z,98896.63
2023-04-11T16:52:12.891Z,98855.41
2023-04-11T16:54:59.189Z,98876.16
2023-04-11T16:57:45.666Z,98857.34
2023-04-11T17:00:32.566Z,98864.22
2023-04-11T17:03:19.918Z,98876.19
2023-04-11T17:06:14.792Z,98884.84
2023-04-11T17:09:01.496Z,98866.06
2023-04-11T17:11:48.059Z,98877.44
2023-04-11T17:14:35.614Z,98866.41
2023-04-11T17:17:22.892Z,98871.56
2023-04-11T17:20:10.227Z,98859.66
2023-04-11T17:22:56.898Z,98868.28
2023-04-11T17:25:43.390Z,98854.66
2023-04-11T17:28:29.677Z,98830.69
2023-04-11T17:31:18.593Z,98847.94
2023-04-11T17:34:05.217Z,98842.88
2023-04-11T17:36:51.595Z,98861.00
2023-04-11T17:39:38.102Z,98862.84
2023-04-11T17:42:24.689Z,98869.81
2023-04-11T17:45:17.550Z,98855.31
2023-04-11T17:48:08.099Z,98845.94
2023-04-11T17:50:55.938Z,98877.81
2023-04-11T17:53:42.146Z,98870.13
2023-04-11T17:56:29.416Z,98872.88
2023-04-11T18:03:54.679Z,98873.91
2023-04-11T18:06:42.406Z,98873.13
2023-04-11T18:09:31.735Z,98874.06
2023-04-11T18:12:18.001Z,98832.06
2023-04-11T18:15:06.081Z,98871.56
2023-04-11T18:17:53.046Z,98840.66
2023-04-11T18:20:39.238Z,98851.09
2023-04-11T18:23:25.607Z,98846.84
2023-04-11T18:26:12.305Z,98837.41
2023-04-11T18:29:00.340Z,98833.97
2023-04-11T18:31:46.989Z,98880.44
2023-04-11T18:34:33.342Z,98861.50
2023-04-11T18:37:21.399Z,98836.50
2023-04-11T18:40:14.184Z,98874.41
2023-04-11T18:43:00.950Z,98875.28
2023-04-11T18:45:49.357Z,98866.66
2023-04-11T18:48:36.503Z,98877.88
2023-04-11T18:51:23.087Z,98864.06
2023-04-11T18:54:09.635Z,98854.59
2023-04-11T18:56:57.194Z,98844.19
2023-04-11T18:59:47.675Z,98836.44
2023-04-11T19:02:36.606Z,98889.00
2023-04-11T19:05:25.371Z,98890.69
2023-04-11T19:08:12.264Z,98870.84
2023-04-11T19:10:59.147Z,98872.50
2023-04-11T19:13:45.819Z,98856.94
2023-04-11T19:16:33.335Z,98885.38
2023-04-11T19:19:20.121Z,98843.09
2023-04-11T19:22:07.356Z,98859.47
2023-04-11T19:24:53.892Z,98861.13
2023-04-11T19:27:41.755Z,98841.31
2023-04-11T19:30:28.667Z,98851.59
2023-04-11T19:33:15.381Z,98870.53
2023-04-11T19:36:02.557Z,98867.06
2023-04-11T19:38:48.762Z,98849.78
2023-04-11T19:41:34.998Z,98826.53
2023-04-11T19:44:21.157Z,98810.13
2023-04-11T19:47:07.325Z,98824.75
2023-04-11T19:49:53.654Z,98860.09
2023-04-11T19:52:41.714Z,98846.31
2023-04-11T19:55:28.037Z,98811.88
2023-04-11T19:58:15.850Z,98845.41
2023-04-11T20:01:03.813Z,98828.19
2023-04-11T20:03:53.702Z,98848.91
2023-04-11T20:06:43.850Z,98794.56
2023-04-11T20:09:30.313Z,98808.34
2023-04-11T20:12:16.773Z,98831.63
2023-04-11T20:15:03.400Z,98829.97
2023-04-11T20:17:49.842Z,98814.47
2023-04-11T20:20:36.825Z,98759.41
2023-04-11T20:23:24.160Z,98776.59
2023-04-11T20:26:10.571Z,98801.59
2023-04-11T20:28:59.923Z,98792.09
2023-04-11T20:31:46.238Z,98756.78
2023-04-11T20:34:32.510Z,98755.94
2023-04-11T20:37:19.484Z,98759.41
2023-04-11T20:40:07.246Z,98774.06
2023-04-11T20:42:53.467Z,98781.88
2023-04-11T20:45:39.605Z,98776.72
2023-04-11T20:48:29.550Z,98786.25
2023-04-11T20:51:17.543Z,98771.56
2023-04-11T20:54:03.942Z,98776.72
2023-04-11T20:56:50.085Z,98756.91
2023-04-11T20:59:38.199Z,98768.97
2023-04-11T21:02:24.971Z,98705.19
2023-04-11T21:05:13.358Z,98770.72
2023-04-11T21:07:59.577Z,98741.44
2023-04-11T21:10:46.103Z,98766.41
2023-04-11T21:13:32.535Z,98761.19
2023-04-11T21:16:18.802Z,98712.13
2023-04-11T21:19:05.032Z,98728.59
2023-04-11T21:21:51.379Z,98744.06
2023-04-11T21:24:37.965Z,98725.13
2023-04-11T21:27:24.278Z,98688.16
2023-04-11T21:30:11.375Z,98716.50
2023-04-11T21:32:57.946Z,98697.59
2023-04-11T21:35:44.718Z,98702.00
2023-04-11T21:38:30.982Z,98713.97
2023-04-11T21:41:17.443Z,98704.59
2023-04-11T21:44:03.836Z,98682.19
2023-04-11T21:46:50.351Z,98713.16
2023-04-11T21:49:36.781Z,98704.50
2023-04-11T21:52:22.982Z,98716.56
2023-04-11T21:55:09.772Z,98668.41
2023-04-11T21:57:56.346Z,98701.13
2023-04-11T22:00:42.547Z,98659.00
2023-04-11T22:03:29.039Z,98677.97
2023-04-11T22:06:16.163Z,98652.16
2023-04-11T22:09:03.205Z,98661.63
2023-04-11T22:11:50.156Z,98667.66
2023-04-11T22:14:38.200Z,98642.72
2023-04-11T22:17:24.460Z,98617.81
2023-04-11T22:20:11.180Z,98635.91
2023-04-11T22:22:57.588Z,98607.56
2023-04-11T22:25:44.264Z,98643.66
2023-04-11T22:28:31.117Z,98503.44
2023-04-11T22:31:17.718Z,98644.47
2023-04-11T22:34:04.747Z,98638.44
2023-04-11T22:36:50.784Z,98578.25
2023-04-11T22:39:37.385Z,98596.28
2023-04-11T22:42:24.765Z,98616.97
2023-04-11T22:45:11.541Z,98595.47
2023-04-11T22:48:00.092Z,98588.63
2023-04-11T22:50:52.625Z,98561.09
2023-04-11T22:53:42.115Z,98561.97
2023-04-11T22:56:28.653Z,98574.84
2023-04-11T22:59:15.126Z,98592.91
2023-04-11T23:02:01.656Z,98570.56
2023-04-11T23:04:48.288Z,98588.63
2023-04-11T23:07:34.806Z,98589.50
2023-04-11T23:10:21.277Z,98596.38
2023-04-11T23:13:08.402Z,98571.38
2023-04-11T23:15:54.778Z,98588.63
2023-04-11T23:18:41.100Z,98542.25
2023-04-11T23:21:28.996Z,98569.75
2023-04-11T23:24:15.824Z,98580.03
2023-04-11T23:27:02.474Z,98575.75
2023-04-11T23:29:52.716Z,98574.06
2023-04-11T23:32:39.791Z,98553.44
2023-04-11T23:35:26.085Z,98559.47
2023-04-11T23:38:12.287Z,98563.78
2023-04-11T23:40:59.215Z,98513.13
2023-04-11T23:43:46.036Z,98534.63
2023-04-11T23:46:32.713Z,98546.66
2023-04-11T23:49:19.172Z,98540.63
2023-04-11T23:52:05.496Z,98565.59
2023-04-11T23:54:52.177Z,98531.22
2023-04-11T23:57:38.485Z,98538.09
